Latest Weather Observations for Merriwa

IDN60801

Issued at 6:05 am EDT Saturday 29 November 2014 (issued every 30 minutes, with the page automatically refreshed every 10 minutes)

About weather observations | Map of weather stations | Latest weather observations for NSW | Other Formats
Station Details ID: 061287 Name: MERRIWA (ROSCOMMON) Lat: -32.19 Lon: 150.17 Height: 375.0 m
Data from the previous 72 hours. | See also: Recent months at Merriwa
Date/Time
EDT
Temp
°C
App
Temp
°C
Dew
Point
Rel
Hum
%
Delta-T
°C
Wind Press
QNH
hPa
Press
MSL
hPa
Rain
since 9 am
mm
Dir
 
Spd
km/h
Gust
km/h
Spd
kts
Gust
kts
29/06:00am 11.4 10.1 11.1 98 0.2 NNE 9 11 5 6 1020.1 1018.9 0.0
29/05:30am 10.5 8.9 10.2 98 0.2 NNE 9 13 5 7 1019.8 1018.7 0.0
29/05:00am 11.0 9.9 10.7 98 0.2 NE 7 9 4 5 1019.6 1018.5 0.0
29/04:30am 11.4 10.6 11.1 98 0.2 E 6 9 3 5 1019.3 1018.2 0.0
29/04:00am 11.1 11.3 10.5 96 0.3 CALM 0 0 0 0 1019.4 1018.3 0.0
29/03:30am 11.9 12.4 11.6 98 0.2 CALM 0 0 0 0 1019.4 1018.3 0.0
29/03:00am 11.6 11.5 10.8 95 0.4 E 2 11 1 6 1019.6 1018.5 0.0
29/02:30am 11.7 10.7 10.3 91 0.7 NNE 6 7 3 4 1019.4 1018.3 0.0
29/02:00am 12.8 11.6 11.7 93 0.6 E 9 11 5 6 1019.5 1018.4 0.0
29/01:30am 13.2 12.1 12.1 93 0.6 E 9 11 5 6 1019.7 1018.6 0.0
29/01:00am 13.1 12.3 11.2 88 1.0 E 6 9 3 5 1019.8 1018.7 0.0
29/12:30am 14.1 13.0 12.0 87 1.2 ESE 9 13 5 7 1019.9 1018.8 0.0
29/12:00am 14.7 13.2 11.8 83 1.6 ESE 11 13 6 7 1020.2 1019.0 0.0
 
Date/Time
EDT
Temp
°C
App
Temp
°C
Dew
Point
Rel
Hum
%
Delta-T
°C
Wind Press
QNH
hPa
Press
MSL
hPa
Rain
since 9 am
mm
Dir
 
Spd
km/h
Gust
km/h
Spd
kts
Gust
kts
28/11:30pm 15.4 13.7 12.3 82 1.7 ESE 13 20 7 11 1019.8 1018.7 0.0
28/11:00pm 15.8 13.6 12.2 79 2.0 ESE 15 20 8 11 1020.1 1018.9 0.0
28/10:30pm 16.4 14.0 12.6 78 2.1 ESE 17 20 9 11 1020.4 1019.2 0.0
28/10:00pm 17.0 14.6 12.5 75 2.5 E 17 24 9 13 1020.1 1018.9 0.0
28/09:30pm 17.8 14.8 12.5 71 3.0 E 20 30 11 16 1019.7 1018.6 0.0
28/09:00pm 18.1 15.9 12.1 68 3.4 E 15 22 8 12 1019.6 1018.5 0.0
28/08:30pm 19.1 16.5 12.1 64 4.0 E 17 28 9 15 1019.2 1018.1 0.0
28/08:00pm 20.2 17.0 11.9 59 4.7 E 20 32 11 17 1018.9 1017.8 0.0
28/07:30pm 21.3 17.6 11.6 54 5.5 E 22 32 12 17 1018.8 1017.7 0.0
28/07:00pm 22.5 18.4 11.6 50 6.2 E 24 35 13 19 1018.5 1017.4 0.0
28/06:30pm 23.6 18.6 11.0 45 7.1 E 28 37 15 20 1018.3 1017.1 0.0
28/06:00pm 25.0 20.4 11.2 42 7.9 E 26 41 14 22 1018.1 1016.9 0.0
28/05:30pm 25.7 21.0 10.7 39 8.5 E 26 33 14 18 1018.0 1016.8 0.0
28/05:00pm 25.9 21.5 10.5 38 8.7 E 24 39 13 21 1018.0 1016.8 0.0
28/04:30pm 26.8 22.8 10.5 36 9.3 ESE 22 28 12 15 1018.4 1017.3 0.0
28/04:00pm 26.6 22.7 9.5 34 9.6 ESE 20 30 11 16 1018.5 1017.4 0.0
28/03:30pm 26.4 22.7 10.1 36 9.2 ESE 20 37 11 20 1018.8 1017.7 0.0
28/03:00pm 26.7 23.2 10.8 37 9.1 ESE 20 32 11 17 1019.2 1018.1 0.0
28/02:30pm 26.0 21.8 9.8 36 9.1 SE 22 26 12 14 1019.6 1018.5 0.0
28/02:00pm 26.0 23.0 10.6 38 8.7 E 17 32 9 17 1020.1 1018.9 0.0
28/01:30pm 25.8 22.3 10.8 39 8.6 ENE 20 24 11 13 1020.5 1019.3 0.0
28/01:00pm 24.8 21.3 11.0 42 7.8 E 20 30 11 16 1021.1 1020.0 0.0
28/12:30pm 24.0 20.4 12.0 47 6.9 E 22 30 12 16 1021.6 1020.5 0.0
28/12:00pm 23.3 19.2 11.4 47 6.8 ESE 24 41 13 22 1021.9 1020.8 0.0
28/11:30am 23.5 20.2 11.5 47 6.9 E 20 35 11 19 1022.2 1021.1 0.0
28/11:00am 22.6 17.8 11.7 50 6.2 ESE 28 37 15 20 1022.5 1021.4 0.0
28/10:30am 22.9 19.1 12.5 52 6.0 ESE 24 35 13 19 1022.7 1021.6 0.0
28/10:00am 20.3 16.4 10.7 54 5.3 E 22 32 12 17 1022.8 1021.7 0.0
28/09:30am 20.9 16.8 11.5 55 5.3 ESE 24 33 13 18 1023.1 1022.0 0.0
28/09:00am 20.7 17.0 11.6 56 5.1 E 22 35 12 19 1023.3 1022.2 0.0
28/08:30am 18.8 15.0 11.1 61 4.3 E 22 35 12 19 1023.4 1022.3 0.0
28/08:00am 17.7 12.7 11.0 65 3.7 ESE 28 39 15 21 1023.0 1021.8 0.0
28/07:30am 17.4 13.8 11.7 69 3.2 E 22 32 12 17 1022.5 1021.4 0.0
28/07:00am 16.8 13.3 12.1 74 2.6 E 22 32 12 17 1022.3 1021.2 0.0
28/06:30am 15.6 11.4 12.4 81 1.8 ESE 26 35 14 19 1021.8 1020.7 0.0
28/06:00am 15.6 12.1 12.2 80 1.9 ESE 22 30 12 16 1021.9 1020.8 0.0
28/05:30am 15.8 12.4 12.5 81 1.8 ESE 22 28 12 15 1021.7 1020.6 0.0
28/05:00am 15.7 11.5 12.5 81 1.8 ESE 26 37 14 20 1021.3 1020.2 0.0
28/04:30am 15.7 11.1 12.3 80 1.9 ESE 28 39 15 21 1021.1 1020.0 0.0
28/04:00am 16.0 13.2 12.6 80 1.9 ESE 19 28 10 15 1021.2 1020.1 0.0
28/03:30am 16.0 12.3 12.6 80 1.9 ESE 24 39 13 21 1021.3 1020.2 0.0
28/03:00am 16.2 12.8 12.6 79 2.0 ESE 22 32 12 17 1021.6 1020.5 0.0
28/02:30am 16.2 12.8 12.6 79 2.0 ESE 22 32 12 17 1021.6 1020.5 0.0
28/02:00am 16.4 12.7 12.6 78 2.1 ESE 24 39 13 21 1021.9 1020.8 0.0
28/01:30am 16.0 11.0 12.2 78 2.1 ESE 30 39 16 21 1022.0 1020.9 0.0
28/01:19am 15.7 10.7 12.1 79 2.0 ESE 30 48 16 26 1022.2 1021.1 0.0
28/01:00am 16.3 11.8 12.7 79 2.0 ESE 28 37 15 20 1022.3 1021.2 0.0
28/12:30am 16.4 12.7 12.6 78 2.1 ESE 24 39 13 21 1022.4 1021.3 0.0
28/12:00am 16.5 12.8 12.8 79 2.1 ESE 24 35 13 19 1022.6 1021.5 0.0
 
Date/Time
EDT
Temp
°C
App
Temp
°C
Dew
Point
Rel
Hum
%
Delta-T
°C
Wind Press
QNH
hPa
Press
MSL
hPa
Rain
since 9 am
mm
Dir
 
Spd
km/h
Gust
km/h
Spd
kts
Gust
kts
27/11:30pm 16.6 12.2 12.8 78 2.1 ESE 28 39 15 21 1022.7 1021.6 0.0
27/11:00pm 16.7 11.8 12.7 77 2.2 ESE 30 43 16 23 1022.6 1021.5 0.0
27/10:30pm 17.0 11.8 12.7 76 2.4 ESE 32 44 17 24 1022.6 1021.5 0.0
27/10:00pm 17.3 12.2 13.0 76 2.4 ESE 32 41 17 22 1022.5 1021.4 0.0
27/09:30pm 17.4 13.1 13.1 76 2.5 ESE 28 43 15 23 1022.3 1021.2 0.0
27/09:00pm 17.5 13.2 13.2 76 2.5 ESE 28 43 15 23 1022.0 1020.9 0.0
27/08:30pm 17.6 12.5 13.1 75 2.6 ESE 32 41 17 22 1021.8 1020.7 0.0
27/08:00pm 18.3 12.7 13.2 72 2.9 ESE 35 46 19 25 1021.5 1020.4 0.0
27/07:30pm 19.2 14.5 13.2 68 3.5 E 30 43 16 23 1020.9 1019.8 0.0
27/07:13pm 20.1 15.0 13.1 64 4.0 ESE 32 50 17 27 1020.7 1019.6 0.0
27/07:00pm 20.4 15.0 12.9 62 4.3 ESE 33 44 18 24 1020.6 1019.4 0.0
27/06:30pm 21.5 15.8 12.9 58 5.0 ESE 35 46 19 25 1020.1 1018.9 0.0
27/06:00pm 22.2 16.5 13.0 56 5.3 ESE 35 46 19 25 1019.5 1018.4 0.0
27/05:30pm 23.3 17.8 13.5 54 5.8 ESE 35 46 19 25 1019.1 1018.0 0.0
27/05:00pm 24.1 18.6 13.6 52 6.2 ESE 35 46 19 25 1018.8 1017.7 0.0
27/04:30pm 24.9 20.5 14.1 51 6.5 E 30 46 16 25 1018.9 1017.8 0.0
27/04:00pm 25.7 21.6 14.8 51 6.6 ESE 30 43 16 23 1019.2 1018.1 0.0
27/03:30pm 25.1 20.1 13.9 49 6.7 ESE 33 46 18 25 1019.3 1018.2 0.0
27/03:00pm 23.6 18.9 13.2 52 6.1 ESE 30 44 16 24 1019.4 1018.3 0.0
27/02:30pm 25.6 20.5 13.1 46 7.4 ESE 32 43 17 23 1019.4 1018.3 0.0
27/02:00pm 25.6 21.0 13.5 47 7.2 ESE 30 41 16 22 1019.4 1018.3 0.0
27/01:30pm 25.8 21.6 13.6 47 7.3 E 28 43 15 23 1019.4 1018.3 0.0
27/01:00pm 25.6 22.0 14.1 49 6.9 ESE 26 37 14 20 1019.7 1018.6 0.0
27/12:30pm 24.9 20.1 14.1 51 6.5 ESE 32 46 17 25 1019.9 1018.8 0.0
27/12:25pm 26.1 22.5 15.2 51 6.7 ESE 28 46 15 25 1019.9 1018.8 0.0
27/12:00pm 24.8 21.0 14.6 53 6.2 ESE 28 35 15 19 1020.2 1019.0 0.0
27/11:30am 23.6 20.4 14.3 56 5.6 E 24 35 13 19 1020.3 1019.1 0.0
27/11:00am 24.9 22.5 15.5 56 5.8 E 22 37 12 20 1020.4 1019.2 0.0
27/10:30am 23.8 19.3 14.8 57 5.4 ESE 32 41 17 22 1020.4 1019.2 0.0
27/10:00am 21.3 18.0 14.9 67 3.8 SE 26 35 14 19 1020.7 1019.6 0.0
27/09:30am 21.0 18.0 14.9 68 3.7 ESE 24 32 13 17 1020.5 1019.3 0.0
27/09:00am 22.3 19.9 15.4 65 4.2 ESE 22 30 12 16 1020.3 1019.1 0.0
27/08:30am 21.1 18.8 15.6 71 3.3 ESE 22 33 12 18 1020.2 1019.0 0.0
27/08:00am 20.3 19.0 15.7 75 2.8 ESE 17 26 9 14 1019.8 1018.7 0.0
27/07:30am 19.8 18.5 15.7 77 2.5 SE 17 24 9 13 1019.5 1018.4 0.0
27/07:00am 19.6 18.7 15.9 79 2.2 SE 15 19 8 10 1019.1 1018.0 0.0
27/06:30am 19.3 18.8 15.8 80 2.1 ESE 13 19 7 10 1018.7 1017.6 0.0
27/06:00am 19.2 17.9 15.7 80 2.1 ESE 17 20 9 11 1018.4 1017.3 0.0
27/05:30am 19.0 18.8 15.7 81 2.0 E 11 17 6 9 1018.2 1017.0 0.0
27/05:00am 19.1 18.9 15.6 80 2.1 E 11 15 6 8 1017.8 1016.6 0.0
27/04:30am 19.4 18.2 15.1 76 2.6 ESE 15 19 8 10 1017.5 1016.3 0.0
27/04:00am 19.3 18.1 15.0 76 2.6 ESE 15 20 8 11 1017.1 1016.0 0.0
27/03:30am 19.1 18.0 15.2 78 2.3 ESE 15 19 8 10 1017.1 1016.0 0.0
27/03:00am 19.6 18.2 15.5 77 2.5 SE 17 24 9 13 1017.1 1016.0 0.0
27/02:30am 19.3 18.8 15.8 80 2.1 SE 13 15 7 8 1017.0 1015.9 0.0
27/02:00am 19.6 18.9 16.3 81 2.0 ESE 15 20 8 11 1017.3 1016.1 0.0
27/01:30am 19.8 18.7 16.4 81 2.1 ESE 17 22 9 12 1017.5 1016.3 0.0
27/01:00am 19.5 18.8 16.5 83 1.8 ESE 15 19 8 10 1017.7 1016.5 0.0
27/12:30am 19.5 19.1 16.3 82 1.9 E 13 19 7 10 1017.8 1016.6 0.0
27/12:00am 20.0 19.3 16.4 80 2.2 E 15 19 8 10 1017.9 1016.7 0.0
 
Date/Time
EDT
Temp
°C
App
Temp
°C
Dew
Point
Rel
Hum
%
Delta-T
°C
Wind Press
QNH
hPa
Press
MSL
hPa
Rain
since 9 am
mm
Dir
 
Spd
km/h
Gust
km/h
Spd
kts
Gust
kts
26/11:30pm 20.3 20.0 16.5 79 2.3 E 13 20 7 11 1017.8 1016.6 0.0
26/11:00pm 19.7 19.5 15.8 78 2.4 ESE 11 13 6 7 1017.6 1016.4 0.0
26/10:30pm 20.5 20.4 15.9 75 2.8 E 11 13 6 7 1017.1 1016.0 0.0
26/10:00pm 21.3 20.8 16.0 72 3.2 E 13 17 7 9 1016.8 1015.7 0.0
26/09:30pm 22.4 21.6 16.2 68 3.8 ESE 15 22 8 12 1016.6 1015.5 0.0
26/09:00pm 22.9 21.7 16.0 65 4.2 ESE 17 26 9 14 1016.2 1015.1 0.0
26/08:30pm 24.5 22.8 15.7 58 5.4 SE 19 22 10 12 1015.8 1014.6 0.0
26/08:00pm 25.3 25.3 14.1 50 6.7 E 7 11 4 6 1015.1 1013.9 0.0
26/07:30pm 27.2 27.2 14.2 44 7.9 ENE 7 13 4 7 1014.7 1013.5 0.0
26/07:00pm 28.2 26.8 14.4 42 8.4 ENE 15 19 8 10 1014.3 1013.2 0.0
26/06:30pm 28.9 27.4 14.3 40 8.9 ENE 15 20 8 11 1013.8 1012.7 0.0
26/06:00pm 29.4 27.2 14.8 41 9.0 ENE 20 30 11 16 1013.6 1012.4 0.0
26/05:30pm 31.3 29.7 11.7 30 11.6 E 11 19 6 10 1013.6 1012.4 0.0
26/05:00pm 31.7 31.2 12.0 30 11.8 SW 6 13 3 7 1013.5 1012.3 0.0
26/04:30pm 30.9 28.8 12.3 32 11.1 SW 15 26 8 14 1013.7 1012.6 0.0
26/04:00pm 30.1 29.8 13.4 36 10.1 SSW 7 15 4 8 1013.9 1012.8 0.0
26/03:30pm 29.1 28.2 13.7 38 9.3 SSW 11 19 6 10 1014.5 1013.3 0.0
26/03:00pm 29.7 29.5 14.7 40 9.3 SSE 9 17 5 9 1015.1 1013.9 0.0
26/02:30pm 28.2 27.3 14.8 44 8.2 SSE 13 22 7 12 1015.7 1014.5 0.0
26/02:00pm 27.2 25.8 14.6 46 7.7 SSE 15 20 8 11 1016.2 1015.1 0.0
26/01:30pm 26.8 26.0 15.2 49 7.1 SE 13 20 7 11 1016.6 1015.5 0.0
26/01:00pm 27.0 26.4 15.7 50 7.0 NNE 13 20 7 11 1017.3 1016.1 0.0
26/12:30pm 25.9 25.7 15.6 53 6.4 ESE 11 17 6 9 1017.6 1016.4 0.0
26/12:00pm 24.4 23.9 14.8 55 5.8 SE 11 20 6 11 1018.2 1017.0 0.0
26/11:30am 23.0 22.5 14.8 60 4.9 SSE 11 17 6 9 1018.9 1017.8 0.0
26/11:00am 22.5 22.5 15.1 63 4.5 ESE 9 15 5 8 1019.1 1018.0 0.0
26/10:30am 20.6 19.6 14.5 68 3.6 ESE 13 19 7 10 1019.3 1018.2 0.0
26/10:00am 20.0 19.0 14.6 71 3.2 ESE 13 19 7 10 1019.4 1018.3 0.0
26/09:30am 19.0 18.0 14.7 76 2.5 SE 13 17 7 9 1019.3 1018.2 0.0
26/09:00am 18.5 17.6 14.8 79 2.2 SE 13 19 7 10 1019.3 1018.2 0.0
26/08:30am 18.0 17.5 14.9 82 1.8 ESE 11 15 6 8 1019.5 1018.4 0.0
26/08:00am 17.5 16.6 14.8 84 1.6 ESE 13 19 7 10 1019.3 1018.2 0.0
26/07:30am 17.3 15.9 14.6 84 1.6 E 15 22 8 12 1019.1 1018.0 0.0
26/07:00am 17.4 16.5 14.9 85 1.5 E 13 19 7 10 1019.0 1017.9 0.0
26/06:30am 17.1 16.1 14.7 86 1.4 ESE 13 17 7 9 1018.9 1017.8 0.0

Other Formats:

Comma delimited format used in spreadsheet applications
http://www.bom.gov.au/fwo/IDN60801/IDN60801.95754.axf

JavaScript Object Notation format (JSON) in row-major order
http://www.bom.gov.au/fwo/IDN60801/IDN60801.95754.json